createdAt,value
2018-07-05T00:00:20.219Z,21.60
2018-07-05T00:03:00.017Z,21.50
2018-07-05T00:05:40.088Z,21.50
2018-07-05T00:08:20.065Z,21.60
2018-07-05T00:10:59.793Z,21.60
2018-07-05T00:13:43.364Z,21.70
2018-07-05T00:18:56.779Z,21.70
2018-07-05T00:21:36.526Z,21.70
2018-07-05T00:24:16.239Z,21.70
2018-07-05T00:26:56.108Z,21.70
2018-07-05T00:29:35.798Z,21.70
2018-07-05T00:32:15.587Z,21.70
2018-07-05T18:42:31.160Z,26.10
2018-07-05T18:45:11.095Z,26.00
2018-07-05T18:47:50.897Z,26.10
2018-07-05T18:53:04.448Z,26.00
2018-07-05T18:55:44.466Z,26.00
2018-07-05T18:58:24.164Z,26.00
2018-07-05T19:03:38.058Z,25.90
2018-07-05T19:06:17.768Z,25.80
2018-07-05T19:08:57.574Z,25.80
2018-07-05T19:11:37.412Z,25.80
2018-07-05T19:14:17.226Z,25.70
2018-07-05T19:19:30.610Z,25.60
2018-07-05T19:22:10.243Z,25.50
2018-07-05T19:24:50.277Z,25.40
2018-07-05T19:27:30.144Z,25.40
2018-07-05T19:30:09.900Z,25.40
2018-07-05T19:32:50.683Z,25.20
2018-07-05T19:35:30.528Z,25.20
2018-07-05T19:38:10.460Z,25.10
2018-07-05T19:40:50.041Z,25.00
2018-07-05T19:46:03.483Z,24.90
2018-07-05T19:48:43.429Z,24.80
2018-07-05T19:51:23.267Z,24.80
2018-07-05T19:54:03.035Z,24.70
2018-07-05T19:56:42.798Z,24.60
2018-07-05T19:59:22.650Z,24.60
2018-07-05T20:02:02.340Z,24.50
2018-07-05T20:04:42.232Z,24.40
2018-07-05T20:09:56.056Z,24.30
2018-07-05T20:12:36.105Z,24.30
2018-07-05T20:15:15.857Z,24.20
2018-07-05T20:17:55.543Z,24.20
2018-07-05T20:20:35.515Z,24.10
2018-07-05T20:23:15.107Z,24.10
2018-07-05T20:25:54.755Z,24.00
2018-07-05T20:28:34.506Z,23.90
2018-07-05T20:31:14.248Z,23.90
2018-07-05T20:33:53.995Z,23.90
2018-07-05T20:36:34.256Z,23.80
2018-07-05T20:39:14.060Z,23.70
2018-07-05T20:41:53.768Z,23.70
2018-07-05T20:44:33.229Z,23.60
2018-07-05T20:47:12.753Z,23.60
2018-07-05T20:49:52.387Z,23.60
2018-07-05T20:52:31.960Z,23.50
2018-07-05T20:55:11.608Z,23.50
2018-07-05T20:57:51.387Z,23.40
2018-07-05T21:00:31.143Z,23.40
2018-07-05T21:06:47.868Z,23.30
2018-07-05T21:09:27.639Z,23.20
2018-07-05T21:12:07.425Z,23.20
2018-07-05T21:14:47.219Z,23.10
2018-07-05T21:17:27.058Z,23.10
2018-07-05T21:20:06.915Z,23.00
2018-07-05T21:22:46.667Z,23.00
2018-07-05T21:25:26.200Z,23.00
2018-07-05T21:28:05.971Z,23.00
2018-07-05T21:30:45.692Z,22.90
2018-07-05T21:33:25.572Z,22.90
2018-07-05T21:36:05.280Z,22.90
2018-07-05T21:38:45.108Z,22.80
2018-07-05T21:41:24.730Z,22.70
2018-07-05T21:44:04.731Z,22.70
2018-07-05T21:46:44.572Z,22.70
2018-07-05T21:49:24.445Z,22.60
2018-07-05T21:54:38.785Z,22.50
2018-07-05T21:57:18.575Z,22.50
2018-07-05T21:59:58.159Z,22.50
2018-07-05T22:02:37.916Z,22.40
2018-07-05T22:05:17.625Z,22.40
2018-07-05T22:07:57.413Z,22.30
2018-07-05T22:10:37.071Z,22.30
2018-07-05T22:13:16.695Z,22.20
2018-07-05T22:15:56.549Z,22.20
2018-07-05T22:18:41.680Z,22.10
2018-07-05T22:21:21.395Z,22.10
2018-07-05T22:30:24.575Z,22.00
2018-07-05T22:33:04.272Z,21.90
2018-07-05T22:38:17.616Z,21.90
2018-07-05T22:40:57.200Z,21.80
2018-07-05T22:43:36.876Z,21.80
2018-07-05T22:46:16.467Z,21.70
2018-07-05T22:48:56.431Z,21.60
2018-07-05T22:51:36.174Z,21.60
2018-07-05T22:54:15.905Z,21.60
2018-07-05T23:02:03.039Z,21.50
2018-07-05T23:04:42.768Z,21.40
2018-07-05T23:07:22.490Z,21.40
2018-07-05T23:10:02.172Z,21.30
2018-07-05T23:12:41.809Z,21.30
2018-07-05T23:15:21.460Z,21.20
2018-07-05T23:18:01.277Z,21.20
2018-07-05T23:20:41.061Z,21.10
2018-07-05T23:28:28.384Z,21.00
2018-07-05T23:31:08.266Z,21.00
2018-07-05T23:33:47.873Z,20.90
2018-07-05T23:36:27.815Z,20.80
2018-07-05T23:39:07.573Z,20.80
2018-07-05T23:41:47.519Z,20.80
2018-07-05T23:44:27.269Z,20.80
2018-07-05T23:47:07.150Z,20.70
2018-07-05T23:49:46.755Z,20.60
2018-07-05T23:52:26.431Z,20.60
2018-07-05T23:55:06.164Z,20.50
2018-07-05T23:57:45.911Z,20.50
